createdAt,value
2018-04-20T00:02:08.696Z,14.83
2018-04-20T00:04:37.002Z,15.07
2018-04-20T00:07:05.341Z,13.30
2018-04-20T00:09:33.659Z,14.03
2018-04-20T00:12:02.034Z,13.53
2018-04-20T00:14:30.350Z,13.17
2018-04-20T00:16:58.706Z,13.20
2018-04-20T00:19:27.013Z,13.93
2018-04-20T00:21:55.376Z,14.03
2018-04-20T00:24:23.684Z,14.60
2018-04-20T00:26:52.034Z,14.60
2018-04-20T00:29:20.373Z,14.00
2018-04-20T00:31:48.723Z,13.90
2018-04-20T00:34:17.047Z,14.87
2018-04-20T00:36:45.406Z,13.33
2018-04-20T00:39:13.730Z,13.23
2018-04-20T00:41:42.066Z,13.37
2018-04-20T00:44:10.396Z,13.33
2018-04-20T00:46:38.746Z,14.43
2018-04-20T00:49:07.076Z,12.57
2018-04-20T00:51:35.415Z,13.60
2018-04-20T00:54:15.571Z,13.63
2018-04-20T00:56:43.925Z,14.30
2018-04-20T00:59:12.264Z,13.50
2018-04-20T01:01:40.611Z,13.33
2018-04-20T01:04:08.945Z,13.23
2018-04-20T01:06:37.304Z,14.57
2018-04-20T01:09:06.559Z,14.00
2018-04-20T01:11:34.927Z,13.47
2018-04-20T01:14:03.274Z,14.33
2018-04-20T01:16:31.619Z,13.63
2018-04-20T01:18:59.952Z,12.40
2018-04-20T01:21:28.309Z,13.83
2018-04-20T01:23:56.643Z,13.53
2018-04-20T01:26:24.990Z,12.97
2018-04-20T01:28:53.317Z,14.37
2018-04-20T01:31:22.528Z,12.83
2018-04-20T01:33:50.869Z,13.87
2018-04-20T01:36:19.252Z,14.53
2018-04-20T01:38:47.588Z,14.97
2018-04-20T01:41:15.933Z,13.83
2018-04-20T01:43:44.252Z,13.27
2018-04-20T01:46:12.698Z,13.97
2018-04-20T01:48:41.032Z,14.43
2018-04-20T01:51:09.374Z,14.03
2018-04-20T01:53:37.732Z,13.73
2018-04-20T01:56:06.069Z,13.20
2018-04-20T01:58:34.406Z,13.03
2018-04-20T02:01:02.761Z,12.93
2018-04-20T02:03:31.135Z,12.27
2018-04-20T02:05:59.480Z,13.57
2018-04-20T02:08:27.832Z,13.90
2018-04-20T02:10:56.160Z,12.67
2018-04-20T02:13:24.516Z,13.17
2018-04-20T02:15:52.843Z,14.00
2018-04-20T02:18:21.341Z,13.27
2018-04-20T02:20:49.772Z,13.67
2018-04-20T02:23:18.123Z,13.53
2018-04-20T02:25:46.458Z,12.90
2018-04-20T02:28:14.797Z,13.20
2018-04-20T02:30:43.203Z,13.37
2018-04-20T02:33:11.545Z,12.60
2018-04-20T02:35:39.868Z,12.53
2018-04-20T02:38:08.229Z,13.73
2018-04-20T02:40:36.575Z,13.63
2018-04-20T02:43:04.930Z,12.53
2018-04-20T02:45:33.276Z,14.43
2018-04-20T02:48:01.649Z,14.10
2018-04-20T02:50:29.998Z,14.07
2018-04-20T02:53:00.981Z,14.23
2018-04-20T02:55:29.344Z,13.83
2018-04-20T02:57:58.282Z,14.43
2018-04-20T03:00:27.460Z,12.97
2018-04-20T03:02:55.796Z,12.50
2018-04-20T03:05:24.688Z,14.10
2018-04-20T03:07:53.047Z,14.17
2018-04-20T03:10:21.407Z,14.03
2018-04-20T03:12:49.751Z,13.97
2018-04-20T03:15:18.115Z,14.33
2018-04-20T03:17:46.447Z,11.87
2018-04-20T03:20:14.805Z,14.33
2018-04-20T03:22:43.152Z,13.97
2018-04-20T03:25:11.486Z,14.03
2018-04-20T03:27:39.832Z,14.63
2018-04-20T03:30:08.198Z,13.10
2018-04-20T03:32:36.542Z,15.33
2018-04-20T03:35:04.883Z,13.70
2018-04-20T03:37:33.236Z,14.17
2018-04-20T03:40:01.580Z,13.53
2018-04-20T03:42:29.934Z,14.53
2018-04-20T03:45:00.215Z,13.67
2018-04-20T03:47:28.576Z,13.80
2018-04-20T03:49:56.941Z,14.00
2018-04-20T03:52:25.302Z,15.27
2018-04-20T03:54:53.664Z,14.03
2018-04-20T03:57:21.997Z,15.07
2018-04-20T03:59:50.351Z,12.87
2018-04-20T04:02:18.677Z,14.33
2018-04-20T04:04:47.025Z,14.43
2018-04-20T04:07:15.388Z,13.87
2018-04-20T04:09:43.732Z,14.03
2018-04-20T04:12:12.153Z,13.87
2018-04-20T04:14:40.446Z,14.27
2018-04-20T04:17:20.583Z,13.60
2018-04-20T04:19:54.818Z,14.33
2018-04-20T04:22:35.184Z,14.30
2018-04-20T04:25:15.322Z,14.13
2018-04-20T04:27:47.411Z,13.47
2018-04-20T04:30:15.759Z,14.20
2018-04-20T04:32:44.108Z,13.10
2018-04-20T04:35:12.442Z,13.43
2018-04-20T04:37:40.784Z,15.63
2018-04-20T04:40:09.147Z,15.07
2018-04-20T04:42:37.474Z,13.73
2018-04-20T04:45:05.819Z,14.07
2018-04-20T04:47:34.161Z,15.37
2018-04-20T04:50:02.558Z,13.87
2018-04-20T04:52:30.916Z,12.67
2018-04-20T04:54:59.323Z,14.33
2018-04-20T04:57:27.706Z,14.50
2018-04-20T04:59:56.084Z,14.80
2018-04-20T05:02:24.418Z,12.83
2018-04-20T05:04:54.732Z,13.43
2018-04-20T05:07:23.061Z,13.87
2018-04-20T05:09:51.489Z,12.83
2018-04-20T05:12:19.797Z,12.30
2018-04-20T05:14:48.146Z,13.00
2018-04-20T05:17:16.479Z,12.77
2018-04-20T05:19:44.833Z,13.13
2018-04-20T05:22:13.168Z,13.33
2018-04-20T05:24:42.161Z,13.50
2018-04-20T05:27:10.514Z,12.93
2018-04-20T05:29:38.857Z,12.83
2018-04-20T05:32:07.191Z,12.60
2018-04-20T05:34:35.547Z,11.53
2018-04-20T05:37:03.895Z,11.97
2018-04-20T05:39:32.232Z,11.10
2018-04-20T05:42:00.583Z,10.83
2018-04-20T05:44:28.915Z,10.17
2018-04-20T05:46:57.269Z,10.80
2018-04-20T05:49:25.721Z,10.73
2018-04-20T05:51:54.098Z,9.93
2018-04-20T05:54:22.474Z,10.27
2018-04-20T05:56:50.800Z,10.87
2018-04-20T05:59:19.166Z,9.77
2018-04-20T06:01:48.306Z,11.17
2018-04-20T06:04:16.632Z,11.00
2018-04-20T06:06:44.998Z,11.50
2018-04-20T06:09:13.318Z,10.37
2018-04-20T06:11:41.687Z,10.67
2018-04-20T06:14:09.998Z,9.03
2018-04-20T06:16:38.378Z,9.70
2018-04-20T06:19:06.696Z,9.57
2018-04-20T06:21:35.033Z,9.63
2018-04-20T06:24:03.387Z,9.57
2018-04-20T06:26:31.710Z,9.17
2018-04-20T06:29:00.043Z,8.87
2018-04-20T06:31:28.411Z,9.77
2018-04-20T06:33:56.719Z,8.87
2018-04-20T06:36:25.140Z,9.97
2018-04-20T06:38:54.030Z,9.60
2018-04-20T06:41:22.380Z,8.40
2018-04-20T06:43:50.718Z,9.50
2018-04-20T06:46:19.090Z,10.17
2018-04-20T06:48:47.473Z,9.23
2018-04-20T06:51:15.822Z,9.73
2018-04-20T06:53:44.149Z,10.07
2018-04-20T06:56:12.499Z,10.00
2018-04-20T06:58:40.864Z,10.03
2018-04-20T07:01:09.187Z,8.87
2018-04-20T07:03:37.535Z,9.67
2018-04-20T07:06:05.892Z,8.97
2018-04-20T07:08:34.264Z,9.20
2018-04-20T07:11:02.608Z,9.23
2018-04-20T07:13:30.940Z,9.63
2018-04-20T07:15:59.266Z,8.90
2018-04-20T07:18:28.646Z,9.80
2018-04-20T07:20:57.077Z,9.33
2018-04-20T07:23:25.450Z,8.93
2018-04-20T07:25:53.869Z,8.10
2018-04-20T07:28:22.188Z,8.50
2018-04-20T07:30:50.556Z,7.23
2018-04-20T07:33:18.899Z,9.40
2018-04-20T07:35:47.341Z,9.27
2018-04-20T07:38:16.369Z,8.90
2018-04-20T07:40:44.693Z,8.80
2018-04-20T07:43:13.037Z,9.63
2018-04-20T07:45:41.381Z,8.17
2018-04-20T07:48:09.764Z,7.27
2018-04-20T07:50:38.116Z,8.23
2018-04-20T07:53:06.464Z,7.75
2018-04-20T07:55:34.780Z,6.75
2018-04-20T07:58:03.127Z,8.15
2018-04-20T08:00:31.451Z,6.97
2018-04-20T08:02:59.793Z,6.97
2018-04-20T08:05:28.135Z,7.87
2018-04-20T08:07:56.473Z,7.03
2018-04-20T08:10:24.841Z,6.97
2018-04-20T08:12:53.279Z,6.72
2018-04-20T08:15:21.604Z,7.00
2018-04-20T08:17:49.936Z,6.85
2018-04-20T08:20:18.272Z,7.35
2018-04-20T08:22:48.905Z,6.00
2018-04-20T08:25:17.239Z,7.72
2018-04-20T08:27:45.605Z,6.53
2018-04-20T08:30:13.932Z,5.37
2018-04-20T08:32:42.286Z,6.25
2018-04-20T08:35:10.611Z,5.30
2018-04-20T08:37:38.951Z,7.05
2018-04-20T08:40:07.286Z,7.20
2018-04-20T08:42:35.622Z,5.47
2018-04-20T08:45:03.966Z,4.95
2018-04-20T08:47:32.406Z,5.05
2018-04-20T08:50:00.738Z,5.28
2018-04-20T08:52:29.064Z,5.03
2018-04-20T08:54:57.420Z,4.97
2018-04-20T08:57:25.748Z,4.90
2018-04-20T08:59:54.081Z,6.40
2018-04-20T09:02:22.788Z,5.25
2018-04-20T09:04:51.070Z,4.87
2018-04-20T09:07:19.435Z,5.20
2018-04-20T09:09:47.827Z,4.68
2018-04-20T09:12:16.141Z,5.65
2018-04-20T09:14:44.648Z,4.03
2018-04-20T09:17:12.984Z,5.57
2018-04-20T09:19:41.334Z,4.40
2018-04-20T09:22:09.652Z,5.20
2018-04-20T09:24:40.780Z,4.90
2018-04-20T09:27:09.088Z,4.93
2018-04-20T09:29:37.446Z,5.20
2018-04-20T09:32:05.784Z,5.72
2018-04-20T09:34:34.108Z,6.22
2018-04-20T09:37:02.427Z,4.32
2018-04-20T09:39:30.762Z,5.40
2018-04-20T09:41:59.078Z,5.12
2018-04-20T09:44:27.444Z,6.53
2018-04-20T09:46:55.769Z,5.28
2018-04-20T09:49:24.132Z,5.97
2018-04-20T09:51:52.469Z,4.57
2018-04-20T09:54:20.800Z,4.15
2018-04-20T09:56:49.153Z,4.47
2018-04-20T09:59:17.741Z,4.03
2018-04-20T10:01:46.072Z,5.05
2018-04-20T10:04:18.292Z,5.32
2018-04-20T10:06:46.623Z,4.72
2018-04-20T10:09:14.941Z,4.12
2018-04-20T10:11:43.296Z,4.50
2018-04-20T10:14:11.632Z,4.57
2018-04-20T10:16:39.967Z,3.87
2018-04-20T10:19:08.288Z,3.72
2018-04-20T10:21:36.628Z,4.00
2018-04-20T10:24:04.957Z,3.30
2018-04-20T10:26:33.302Z,2.90
2018-04-20T10:29:01.647Z,4.50
2018-04-20T10:31:29.986Z,4.35
2018-04-20T10:33:58.316Z,5.10
2018-04-20T10:36:26.788Z,4.50
2018-04-20T10:38:55.305Z,4.30
2018-04-20T10:41:23.636Z,4.53
2018-04-20T10:43:51.963Z,4.65
2018-04-20T10:46:21.251Z,4.45
2018-04-20T10:48:49.595Z,3.75
2018-04-20T10:51:17.924Z,4.55
2018-04-20T10:53:46.298Z,4.57
2018-04-20T10:56:14.615Z,4.68
2018-04-20T10:58:42.955Z,4.40
2018-04-20T11:01:11.287Z,4.53
2018-04-20T11:03:39.697Z,4.80
2018-04-20T11:06:07.975Z,4.22
2018-04-20T11:08:36.320Z,4.22
2018-04-20T11:11:04.646Z,4.22
2018-04-20T11:13:32.975Z,4.32
2018-04-20T11:16:01.299Z,4.32
2018-04-20T11:18:29.649Z,4.57
2018-04-20T11:20:57.987Z,4.10
2018-04-20T11:23:26.887Z,4.57
2018-04-20T11:25:55.238Z,4.00
2018-04-20T11:28:23.575Z,4.57
2018-04-20T11:30:52.072Z,4.50
2018-04-20T11:33:20.800Z,5.97
2018-04-20T11:35:49.538Z,3.97
2018-04-20T11:38:17.864Z,4.20
2018-04-20T11:40:46.500Z,4.25
2018-04-20T11:43:14.967Z,5.40
2018-04-20T11:45:43.328Z,4.60
2018-04-20T11:48:11.650Z,4.70
2018-04-20T11:50:40.044Z,4.12
2018-04-20T11:53:08.447Z,4.60
2018-04-20T11:55:36.785Z,3.90
2018-04-20T11:58:05.112Z,4.15
2018-04-20T12:00:33.449Z,4.20
2018-04-20T12:03:01.792Z,3.28
2018-04-20T12:05:30.435Z,4.35
2018-04-20T12:07:58.859Z,4.12
2018-04-20T12:10:27.218Z,3.67
2018-04-20T12:12:55.581Z,3.60
2018-04-20T12:15:23.948Z,4.20
2018-04-20T12:17:52.295Z,3.85
2018-04-20T12:20:20.645Z,4.10
2018-04-20T12:22:48.979Z,4.55
2018-04-20T12:25:17.323Z,4.10
2018-04-20T12:27:45.741Z,4.25
2018-04-20T12:30:14.067Z,3.95
2018-04-20T12:32:42.409Z,4.62
2018-04-20T12:35:10.769Z,3.62
2018-04-20T12:37:39.156Z,3.65
2018-04-20T12:40:07.466Z,3.85
2018-04-20T12:42:35.806Z,3.70
2018-04-20T12:45:04.148Z,3.92
2018-04-20T12:47:32.530Z,4.12
2018-04-20T12:50:02.062Z,3.78
2018-04-20T12:52:30.466Z,4.15
2018-04-20T12:54:58.821Z,3.62
2018-04-20T12:57:27.209Z,3.70
2018-04-20T12:59:55.472Z,3.75
2018-04-20T13:02:23.813Z,3.70
2018-04-20T13:04:52.192Z,4.28
2018-04-20T13:07:20.515Z,3.55
2018-04-20T13:09:48.865Z,3.78
2018-04-20T13:12:17.222Z,4.72
2018-04-20T13:14:45.539Z,3.72
2018-04-20T13:17:13.884Z,4.45
2018-04-20T13:19:42.203Z,3.40
2018-04-20T13:22:10.549Z,3.50
2018-04-20T13:24:38.958Z,3.78
2018-04-20T13:27:07.279Z,4.40
2018-04-20T13:29:35.625Z,4.10
2018-04-20T13:32:03.946Z,3.50
2018-04-20T13:34:32.337Z,4.32
2018-04-20T13:37:00.672Z,3.83
2018-04-20T13:39:28.988Z,3.72
2018-04-20T13:41:57.329Z,3.87
2018-04-20T13:44:25.673Z,4.55
2018-04-20T13:46:54.049Z,4.30
2018-04-20T13:49:22.389Z,4.35
2018-04-20T13:51:50.752Z,4.15
2018-04-20T13:54:19.114Z,4.68
2018-04-20T13:56:48.867Z,4.15
2018-04-20T13:59:17.198Z,4.30
2018-04-20T14:01:45.525Z,4.05
2018-04-20T14:04:13.870Z,3.78
2018-04-20T14:06:42.236Z,4.45
2018-04-20T14:09:10.564Z,3.72
2018-04-20T14:11:38.908Z,4.57
2018-04-20T14:14:09.769Z,4.28
2018-04-20T14:16:38.157Z,4.53
2018-04-20T14:19:06.468Z,3.97
2018-04-20T14:21:34.808Z,3.72
2018-04-20T14:24:03.409Z,3.70
2018-04-20T14:26:31.760Z,3.95
2018-04-20T14:29:01.302Z,4.30
2018-04-20T14:31:29.635Z,3.62
2018-04-20T14:33:57.963Z,4.62
2018-04-20T14:36:26.309Z,4.37
2018-04-20T14:38:55.559Z,3.97
2018-04-20T14:41:23.912Z,4.47
2018-04-20T14:43:52.305Z,3.90
2018-04-20T14:46:20.620Z,4.07
2018-04-20T14:48:48.956Z,4.70
2018-04-20T14:51:17.295Z,4.55
2018-04-20T14:53:45.647Z,4.35
2018-04-20T14:56:13.982Z,4.18
2018-04-20T14:58:42.314Z,3.90
2018-04-20T15:01:11.299Z,4.28
2018-04-20T15:03:39.638Z,4.87
2018-04-20T15:06:07.967Z,4.07
2018-04-20T15:08:36.310Z,3.80
2018-04-20T15:11:04.632Z,4.18
2018-04-20T15:13:32.972Z,4.45
2018-04-20T15:16:01.460Z,4.62
2018-04-20T15:18:29.787Z,4.45
2018-04-20T15:20:58.142Z,4.55
2018-04-20T15:23:26.492Z,4.15
2018-04-20T15:25:54.845Z,3.25
2018-04-20T15:28:23.485Z,4.57
2018-04-20T15:30:51.871Z,4.25
2018-04-20T15:33:20.740Z,3.58
2018-04-20T15:35:49.103Z,4.00
2018-04-20T15:38:17.464Z,4.72
2018-04-20T15:40:45.884Z,4.95
2018-04-20T15:43:14.294Z,5.68
2018-04-20T15:45:42.628Z,4.53
2018-04-20T15:48:10.975Z,4.95
2018-04-20T15:50:39.317Z,4.43
2018-04-20T15:53:07.656Z,4.37
2018-04-20T15:55:36.168Z,5.03
2018-04-20T15:58:04.504Z,5.03
2018-04-20T16:00:33.936Z,4.72
2018-04-20T16:03:02.386Z,5.00
2018-04-20T16:05:30.698Z,4.28
2018-04-20T16:07:59.024Z,4.85
2018-04-20T16:10:27.360Z,5.07
2018-04-20T16:12:55.694Z,5.27
2018-04-20T16:15:24.023Z,5.18
2018-04-20T16:17:52.376Z,4.67
2018-04-20T16:20:20.734Z,5.03
2018-04-20T16:22:49.091Z,4.50
2018-04-20T16:25:17.420Z,5.23
2018-04-20T16:27:45.752Z,4.33
2018-04-20T16:30:14.085Z,5.00
2018-04-20T16:32:42.430Z,5.23
2018-04-20T16:35:10.780Z,5.60
2018-04-20T16:37:39.100Z,6.20
2018-04-20T16:40:07.470Z,5.03
2018-04-20T16:42:35.830Z,5.50
2018-04-20T16:45:04.224Z,5.73
2018-04-20T16:47:32.547Z,4.90
2018-04-20T16:50:00.893Z,5.17
2018-04-20T16:52:29.217Z,6.23
2018-04-20T16:54:57.557Z,5.23
2018-04-20T16:57:25.872Z,6.10
2018-04-20T16:59:54.208Z,5.20
2018-04-20T17:02:22.533Z,6.93
2018-04-20T17:04:50.879Z,5.90
2018-04-20T17:07:19.226Z,6.47
2018-04-20T17:09:47.553Z,6.67
2018-04-20T17:12:15.900Z,5.90
2018-04-20T17:14:44.220Z,8.43
2018-04-20T17:17:12.558Z,6.47
2018-04-20T17:19:40.872Z,6.77
2018-04-20T17:22:09.242Z,5.93
2018-04-20T17:24:37.631Z,6.30
2018-04-20T17:27:05.962Z,6.73
2018-04-20T17:29:34.283Z,7.03
2018-04-20T17:32:02.616Z,7.53
2018-04-20T17:34:30.937Z,7.20
2018-04-20T17:36:59.298Z,7.03
2018-04-20T17:39:27.639Z,7.43
2018-04-20T17:41:55.974Z,7.13
2018-04-20T17:44:24.295Z,7.47
2018-04-20T17:46:52.637Z,8.33
2018-04-20T17:49:20.964Z,9.97
2018-04-20T17:51:49.328Z,9.23
2018-04-20T17:54:17.653Z,8.20
2018-04-20T17:56:45.990Z,9.40
2018-04-20T17:59:14.359Z,8.90
2018-04-20T18:01:42.675Z,9.00
2018-04-20T18:04:11.011Z,8.53
2018-04-20T18:06:39.335Z,9.50
2018-04-20T18:09:07.687Z,8.30
2018-04-20T18:11:36.012Z,8.93
2018-04-20T18:14:04.371Z,10.50
2018-04-20T18:16:32.720Z,15.47
2018-04-20T18:19:01.055Z,16.37
2018-04-20T18:21:29.418Z,12.07
2018-04-20T18:23:57.804Z,14.47
2018-04-20T18:26:26.138Z,14.63
2018-04-20T18:28:54.496Z,10.30
2018-04-20T18:31:22.856Z,10.17
2018-04-20T18:33:51.208Z,10.03
2018-04-20T18:36:19.558Z,10.73
2018-04-20T18:38:47.905Z,9.77
2018-04-20T18:41:16.325Z,9.77
2018-04-20T18:43:44.694Z,10.47
2018-04-20T18:46:13.027Z,9.17
2018-04-20T18:48:41.352Z,10.20
2018-04-20T18:51:10.560Z,16.53
2018-04-20T18:53:38.909Z,13.53
2018-04-20T18:56:07.251Z,10.43
2018-04-20T18:58:35.576Z,11.83
2018-04-20T19:01:04.050Z,12.23
2018-04-20T19:03:32.408Z,10.67
2018-04-20T19:06:00.762Z,10.10
2018-04-20T19:08:29.172Z,9.63
2018-04-20T19:10:58.079Z,10.60
2018-04-20T19:13:26.434Z,8.30
2018-04-20T19:15:54.780Z,8.23
2018-04-20T19:18:23.135Z,9.10
2018-04-20T19:20:51.480Z,8.20
2018-04-20T19:23:19.819Z,10.10
2018-04-20T19:25:48.164Z,9.20
2018-04-20T19:28:16.656Z,10.67
2018-04-20T19:30:45.085Z,10.50
2018-04-20T19:33:13.395Z,10.50
2018-04-20T19:35:41.776Z,10.00
2018-04-20T19:38:10.125Z,10.07
2018-04-20T19:40:38.463Z,12.83
2018-04-20T19:43:06.853Z,13.27
2018-04-20T19:45:35.183Z,12.73
2018-04-20T19:48:03.564Z,11.33
2018-04-20T19:50:31.913Z,11.53
2018-04-20T19:53:00.256Z,11.63
2018-04-20T19:55:28.599Z,10.37
2018-04-20T19:57:56.964Z,10.57
2018-04-20T20:00:25.406Z,9.93
2018-04-20T20:02:53.794Z,10.37
2018-04-20T20:05:22.145Z,9.77
2018-04-20T20:07:50.588Z,10.63
2018-04-20T20:10:18.984Z,10.90
2018-04-20T20:12:47.345Z,10.03
2018-04-20T20:15:15.722Z,11.07
2018-04-20T20:17:44.055Z,10.50
2018-04-20T20:20:12.403Z,11.60
2018-04-20T20:22:40.749Z,10.50
2018-04-20T20:25:09.178Z,10.10
2018-04-20T20:27:37.478Z,9.23
2018-04-20T20:30:05.816Z,8.83
2018-04-20T20:32:34.158Z,8.97
2018-04-20T20:35:02.491Z,9.73
2018-04-20T20:37:30.823Z,9.57
2018-04-20T20:39:59.168Z,9.53
2018-04-20T20:42:27.592Z,9.53
2018-04-20T20:44:55.935Z,9.80
2018-04-20T20:47:25.486Z,11.20
2018-04-20T20:49:53.877Z,8.07
2018-04-20T20:52:22.164Z,9.70
2018-04-20T20:54:50.528Z,10.47
2018-04-20T20:57:18.886Z,10.40
2018-04-20T20:59:47.241Z,8.60
2018-04-20T21:02:15.659Z,9.73
2018-04-20T21:04:43.966Z,9.33
2018-04-20T21:07:12.297Z,8.90
2018-04-20T21:09:40.640Z,11.37
2018-04-20T21:12:08.973Z,9.43
2018-04-20T21:14:37.313Z,9.70
2018-04-20T21:17:05.679Z,10.80
2018-04-20T21:19:34.037Z,9.63
2018-04-20T21:22:02.359Z,10.03
2018-04-20T21:24:30.703Z,9.60
2018-04-20T21:26:59.065Z,9.17
2018-04-20T21:29:27.379Z,9.63
2018-04-20T21:31:55.733Z,8.73
2018-04-20T21:34:24.064Z,8.57
2018-04-20T21:36:53.409Z,8.33
2018-04-20T21:39:21.753Z,9.10
2018-04-20T21:41:50.092Z,9.53
2018-04-20T21:44:18.474Z,8.77
2018-04-20T21:46:46.804Z,9.27
2018-04-20T21:49:15.137Z,10.10
2018-04-20T21:51:43.535Z,8.97
2018-04-20T21:54:11.854Z,8.37
2018-04-20T21:56:40.196Z,8.37
2018-04-20T21:59:08.528Z,9.00
2018-04-20T22:01:36.978Z,8.77
2018-04-20T22:04:05.334Z,9.03
2018-04-20T22:06:33.670Z,7.57
2018-04-20T22:09:02.001Z,8.27
2018-04-20T22:11:32.128Z,8.50
2018-04-20T22:14:00.476Z,7.53
2018-04-20T22:16:28.820Z,8.30
2018-04-20T22:18:57.163Z,7.67
2018-04-20T22:21:25.500Z,8.87
2018-04-20T22:23:53.860Z,7.93
2018-04-20T22:26:22.193Z,7.67
2018-04-20T22:28:50.542Z,7.77
2018-04-20T22:31:18.879Z,8.60
2018-04-20T22:33:47.235Z,8.53
2018-04-20T22:36:16.888Z,7.60
2018-04-20T22:38:45.243Z,8.37
2018-04-20T22:41:15.162Z,8.10
2018-04-20T22:43:43.833Z,8.93
2018-04-20T22:46:12.176Z,8.33
2018-04-20T22:48:40.508Z,7.70
2018-04-20T22:51:08.860Z,9.50
2018-04-20T22:53:37.199Z,10.43
2018-04-20T22:56:05.571Z,10.80
2018-04-20T22:58:33.902Z,14.70
2018-04-20T23:01:03.095Z,14.00
2018-04-20T23:03:31.431Z,14.20
2018-04-20T23:05:59.784Z,16.73
2018-04-20T23:08:28.113Z,14.37
2018-04-20T23:10:56.468Z,14.20
2018-04-20T23:13:24.797Z,13.83
2018-04-20T23:15:53.157Z,13.27
2018-04-20T23:18:21.491Z,13.60
2018-04-20T23:20:49.901Z,13.23
2018-04-20T23:23:18.224Z,11.57
2018-04-20T23:25:46.600Z,12.27
2018-04-20T23:28:14.933Z,11.97
2018-04-20T23:30:43.268Z,12.00
2018-04-20T23:33:11.617Z,11.60
2018-04-20T23:35:39.959Z,11.70
2018-04-20T23:38:08.320Z,9.50
2018-04-20T23:40:36.643Z,8.97
2018-04-20T23:43:04.991Z,9.87
2018-04-20T23:45:33.332Z,9.40
2018-04-20T23:48:01.695Z,10.43
2018-04-20T23:50:30.017Z,9.83
2018-04-20T23:52:58.361Z,9.33
2018-04-20T23:55:26.715Z,10.00
2018-04-20T23:57:55.070Z,10.63
